createdAt,value
2018-12-29T00:07:20.950Z,9.2
2018-12-29T00:17:20.151Z,9.1
2018-12-29T00:27:19.362Z,9
2018-12-29T00:37:18.562Z,9.1
2018-12-29T00:47:17.768Z,9
2018-12-29T00:57:16.959Z,8.9
2018-12-29T01:07:16.165Z,9.1
2018-12-29T01:17:15.371Z,9.1
2018-12-29T01:27:14.576Z,9.1
2018-12-29T01:37:13.764Z,9.3
2018-12-29T01:47:12.972Z,9.2
2018-12-29T01:57:12.177Z,9
2018-12-29T02:07:11.374Z,8.9
2018-12-29T02:17:10.576Z,8.9
2018-12-29T02:27:09.778Z,8.9
2018-12-29T02:37:08.977Z,9
2018-12-29T02:47:08.183Z,9
2018-12-29T02:57:07.384Z,8.9
2018-12-29T03:07:06.593Z,8.8
2018-12-29T03:17:05.800Z,8.8
2018-12-29T03:27:04.999Z,8.8
2018-12-29T03:37:04.203Z,8.7
2018-12-29T03:47:03.409Z,8.5
2018-12-29T03:57:02.603Z,8.6
2018-12-29T04:07:01.805Z,8.6
2018-12-29T04:17:01.002Z,8.7
2018-12-29T04:27:00.203Z,8.6
2018-12-29T04:36:59.407Z,8.6
2018-12-29T04:46:58.610Z,8.5
2018-12-29T04:56:57.801Z,8.5
2018-12-29T05:06:57.005Z,8.5
2018-12-29T05:16:56.204Z,8.6
2018-12-29T05:26:55.402Z,8.6
2018-12-29T05:36:54.597Z,8.6
2018-12-29T05:46:53.810Z,8.6
2018-12-29T05:56:53.012Z,8.6
2018-12-29T06:06:52.198Z,8.6
2018-12-29T06:16:51.396Z,8.6
2018-12-29T06:26:50.598Z,8.4
2018-12-29T06:36:49.802Z,8.4
2018-12-29T06:46:49.007Z,8.4
2018-12-29T06:56:48.199Z,7.3
2018-12-29T07:06:47.392Z,6.6
2018-12-29T07:16:46.599Z,6.3
2018-12-29T07:26:45.790Z,6
2018-12-29T07:36:44.998Z,5.9
2018-12-29T07:46:49.496Z,6.3
2018-12-29T07:56:43.408Z,6.9
2018-12-29T08:06:42.602Z,6.6
2018-12-29T08:16:41.910Z,6.6
2018-12-29T08:26:41.014Z,6.5
2018-12-29T08:36:40.213Z,6.3
2018-12-29T08:46:39.416Z,6.5
2018-12-29T08:56:38.644Z,6.5
2018-12-29T09:06:37.836Z,6.5
2018-12-29T09:16:37.037Z,6.4
2018-12-29T09:26:36.241Z,6.1
2018-12-29T09:36:35.452Z,5.9
2018-12-29T09:46:34.648Z,5.9
2018-12-29T09:56:33.868Z,5.9
2018-12-29T10:06:33.060Z,6.1
2018-12-29T10:16:32.267Z,6.2
2018-12-29T10:26:31.474Z,6.4
2018-12-29T10:36:30.777Z,6.4
2018-12-29T10:46:29.893Z,6.3
2018-12-29T10:56:29.091Z,6.4
2018-12-29T11:06:28.316Z,6.3
2018-12-29T11:16:27.523Z,6.1
2018-12-29T11:26:26.715Z,5.9
2018-12-29T11:36:25.924Z,5.8
2018-12-29T11:46:25.141Z,5.8
2018-12-29T11:56:24.345Z,5.8
2018-12-29T12:06:23.554Z,5.7
2018-12-29T12:16:22.750Z,5.7
2018-12-29T12:26:21.963Z,5.6
2018-12-29T12:36:21.176Z,5.6
2018-12-29T12:46:20.377Z,5.4
2018-12-29T12:56:19.579Z,5.5
2018-12-29T13:06:18.790Z,5.4
2018-12-29T13:16:17.997Z,5.4
2018-12-29T13:26:17.200Z,5.4
2018-12-29T13:36:16.397Z,5.3
2018-12-29T13:46:15.609Z,5.3
2018-12-29T13:56:14.806Z,5.2
2018-12-29T14:06:14.017Z,5.1
2018-12-29T14:16:13.222Z,5.1
2018-12-29T14:26:12.430Z,4.9
2018-12-29T14:36:11.627Z,5
2018-12-29T14:46:10.836Z,4.9
2018-12-29T14:56:10.039Z,4.9
2018-12-29T15:06:09.244Z,4.9
2018-12-29T15:16:08.448Z,5.9
2018-12-29T15:26:07.649Z,6.6
2018-12-29T15:36:06.858Z,7
2018-12-29T15:46:06.062Z,7.3
2018-12-29T15:56:05.267Z,7.4
2018-12-29T16:06:04.477Z,7.6
2018-12-29T16:16:03.686Z,7.7
2018-12-29T16:26:02.896Z,7.8
2018-12-29T16:36:02.098Z,7.9
2018-12-29T16:46:01.303Z,7.9
2018-12-29T16:56:00.522Z,7.9
2018-12-29T17:05:59.717Z,7.9
2018-12-29T17:15:58.924Z,7.9
2018-12-29T17:25:58.138Z,7.8
2018-12-29T17:35:57.345Z,7.9
2018-12-29T17:45:56.550Z,7.8
2018-12-29T17:55:55.758Z,7.9
2018-12-29T18:05:54.967Z,8
2018-12-29T18:15:54.183Z,8
2018-12-29T18:25:53.387Z,8.1
2018-12-29T18:35:52.594Z,8.1
2018-12-29T18:45:51.803Z,8
2018-12-29T18:55:51.019Z,8.1
2018-12-29T19:05:50.227Z,8
2018-12-29T19:15:49.426Z,8.1
2018-12-29T19:25:48.642Z,8.1
2018-12-29T19:35:47.843Z,8
2018-12-29T19:45:47.064Z,8.1
2018-12-29T19:55:46.270Z,8.1
2018-12-29T20:05:45.478Z,8.1
2018-12-29T20:15:44.692Z,8.1
2018-12-29T20:25:43.901Z,8
2018-12-29T20:35:43.111Z,8
2018-12-29T20:45:42.319Z,8.1
2018-12-29T20:55:41.518Z,8
2018-12-29T21:05:40.726Z,8
2018-12-29T21:15:39.936Z,8
2018-12-29T21:25:39.138Z,8.1
2018-12-29T21:35:38.363Z,8.1
2018-12-29T21:45:37.545Z,8.2
2018-12-29T21:55:36.761Z,8.3
2018-12-29T22:05:35.966Z,8.3
2018-12-29T22:15:35.161Z,8.3
2018-12-29T22:25:34.367Z,8.3
2018-12-29T22:35:33.567Z,8.2
2018-12-29T22:45:32.783Z,8.3
2018-12-29T22:55:31.979Z,8.3
2018-12-29T23:05:31.182Z,8.3
2018-12-29T23:15:30.383Z,8.3
2018-12-29T23:25:29.588Z,8.3
2018-12-29T23:35:30.591Z,8.3
2018-12-29T23:45:27.994Z,8.3
2018-12-29T23:55:27.200Z,8.3
